createdAt,value
2024-04-14T00:01:52.545Z,15.90
2024-04-14T00:04:51.674Z,15.90
2024-04-14T00:07:49.786Z,15.90
2024-04-14T00:10:47.510Z,15.80
2024-04-14T00:13:44.741Z,15.70
2024-04-14T00:16:42.120Z,15.68
2024-04-14T00:19:39.400Z,15.60
2024-04-14T00:22:37.249Z,15.50
2024-04-14T00:25:34.442Z,15.40
2024-04-14T00:28:31.979Z,15.40
2024-04-14T00:31:29.131Z,15.30
2024-04-14T00:34:26.682Z,15.20
2024-04-14T00:37:23.837Z,15.10
2024-04-14T00:40:21.282Z,15.00
2024-04-14T00:43:18.555Z,14.92
2024-04-14T00:46:16.097Z,14.80
2024-04-14T00:49:13.399Z,14.70
2024-04-14T00:52:10.945Z,14.64
2024-04-14T00:55:08.142Z,14.60
2024-04-14T00:58:05.590Z,14.50
2024-04-14T01:01:03.133Z,14.40
2024-04-14T01:04:00.429Z,14.30
2024-04-14T01:06:58.250Z,14.30
2024-04-14T01:09:55.652Z,14.20
2024-04-14T01:12:53.563Z,14.10
2024-04-14T01:15:51.368Z,14.10
2024-04-14T01:18:49.099Z,14.00
2024-04-14T01:21:46.744Z,13.94
2024-04-14T01:24:44.054Z,13.90
2024-04-14T01:27:42.780Z,13.80
2024-04-14T01:30:40.216Z,13.80
2024-04-14T01:33:37.848Z,13.70
2024-04-14T01:36:35.134Z,13.62
2024-04-14T01:39:32.517Z,13.60
2024-04-14T01:42:29.977Z,13.50
2024-04-14T01:45:27.185Z,13.46
2024-04-14T01:48:24.705Z,13.40
2024-04-14T01:51:22.010Z,13.30
2024-04-14T01:54:19.504Z,13.20
2024-04-14T01:57:16.674Z,13.12
2024-04-14T02:00:14.134Z,13.10
2024-04-14T02:03:11.376Z,13.10
2024-04-14T02:06:09.080Z,13.00
2024-04-14T02:09:06.316Z,12.98
2024-04-14T02:12:05.495Z,12.90
2024-04-14T02:15:02.888Z,12.90
2024-04-14T02:18:00.191Z,12.90
2024-04-14T02:20:57.902Z,12.90
2024-04-14T02:23:55.764Z,12.90
2024-04-14T02:26:53.217Z,12.90
2024-04-14T02:29:50.365Z,12.80
2024-04-14T02:32:47.808Z,12.80
2024-04-14T02:35:44.979Z,12.80
2024-04-14T02:38:42.437Z,12.70
2024-04-14T02:41:39.589Z,12.70
2024-04-14T02:44:37.007Z,12.64
2024-04-14T02:47:34.293Z,12.60
2024-04-14T02:50:32.129Z,12.60
2024-04-14T02:53:29.582Z,12.58
2024-04-14T02:56:27.031Z,12.60
2024-04-14T02:59:24.188Z,12.60
2024-04-14T03:02:21.616Z,12.60
2024-04-14T03:05:19.197Z,12.56
2024-04-14T03:08:16.780Z,12.50
2024-04-14T03:11:14.333Z,12.50
2024-04-14T03:14:11.526Z,12.50
2024-04-14T03:17:09.010Z,12.48
2024-04-14T03:20:06.690Z,12.42
2024-04-14T03:23:04.121Z,12.40
2024-04-14T03:26:02.704Z,12.40
2024-04-14T03:29:00.138Z,12.32
2024-04-14T03:31:57.510Z,12.30
2024-04-14T03:34:55.124Z,12.30
2024-04-14T03:37:52.593Z,12.20
2024-04-14T03:40:49.849Z,12.20
2024-04-14T03:43:47.337Z,12.20
2024-04-14T03:46:44.491Z,12.10
2024-04-14T03:49:42.001Z,12.10
2024-04-14T03:52:39.165Z,12.10
2024-04-14T03:55:36.705Z,12.10
2024-04-14T03:58:35.153Z,12.08
2024-04-14T04:01:32.582Z,12.06
2024-04-14T04:04:29.819Z,12.02
2024-04-14T04:07:27.355Z,12.08
2024-04-14T04:10:24.929Z,12.00
2024-04-14T04:13:22.079Z,12.00
2024-04-14T04:16:19.639Z,12.00
2024-04-14T04:19:25.457Z,12.00
2024-04-14T04:22:24.799Z,12.00
2024-04-14T04:25:21.967Z,12.00
2024-04-14T04:28:19.552Z,12.00
2024-04-14T04:31:16.727Z,12.00
2024-04-14T04:34:14.147Z,12.00
2024-04-14T04:37:11.673Z,12.00
2024-04-14T04:40:08.886Z,12.00
2024-04-14T04:43:07.621Z,12.00
2024-04-14T04:46:04.795Z,12.02
2024-04-14T04:49:02.518Z,12.10
2024-04-14T04:51:59.875Z,12.10
2024-04-14T04:54:58.317Z,12.12
2024-04-14T04:57:55.626Z,12.20
2024-04-14T05:00:53.091Z,12.20
2024-04-14T05:03:51.846Z,12.30
2024-04-14T05:06:49.141Z,12.34
2024-04-14T05:09:46.764Z,12.40
2024-04-14T05:12:43.996Z,12.48
2024-04-14T05:15:41.683Z,12.50
2024-04-14T05:18:39.388Z,12.60
2024-04-14T05:21:36.789Z,12.60
2024-04-14T05:24:34.409Z,12.70
2024-04-14T05:27:31.614Z,12.80
2024-04-14T05:30:29.198Z,12.90
2024-04-14T05:33:26.593Z,12.98
2024-04-14T05:36:24.075Z,13.00
2024-04-14T05:39:21.309Z,13.14
2024-04-14T05:42:18.795Z,13.28
2024-04-14T05:45:16.235Z,13.38
2024-04-14T05:48:14.040Z,13.50
2024-04-14T05:51:11.665Z,13.60
2024-04-14T05:54:08.980Z,13.70
2024-04-14T05:57:06.416Z,13.90
2024-04-14T06:00:04.625Z,14.00
2024-04-14T06:03:02.169Z,14.10
2024-04-14T06:05:59.467Z,14.30
2024-04-14T06:08:56.952Z,14.48
2024-04-14T06:11:54.127Z,14.70
2024-04-14T06:14:51.805Z,15.00
2024-04-14T06:17:49.111Z,15.20
2024-04-14T06:24:05.571Z,15.90
2024-04-14T06:27:02.718Z,16.20
2024-04-14T06:30:00.168Z,16.58
2024-04-14T06:32:57.524Z,16.90
2024-04-14T06:35:56.132Z,17.28
2024-04-14T06:38:57.292Z,17.60
2024-04-14T06:41:55.457Z,18.04
2024-04-14T06:44:52.634Z,18.48
2024-04-14T06:47:50.152Z,18.88
2024-04-14T06:50:47.509Z,19.30
2024-04-14T06:53:44.662Z,19.62
2024-04-14T06:56:42.220Z,20.08
2024-04-14T06:59:39.513Z,20.50
2024-04-14T07:02:37.024Z,20.86
2024-04-14T07:05:34.265Z,21.20
2024-04-14T07:08:31.647Z,21.54
2024-04-14T07:11:29.174Z,21.80
2024-04-14T07:14:26.457Z,22.20
2024-04-14T07:17:24.001Z,22.60
2024-04-14T07:20:21.740Z,23.04
2024-04-14T07:23:19.093Z,23.50
2024-04-14T07:26:16.263Z,23.98
2024-04-14T07:29:13.679Z,24.40
2024-04-14T07:32:11.522Z,24.76
2024-04-14T07:35:09.015Z,25.10
2024-04-14T07:38:06.686Z,25.52
2024-04-14T07:41:04.236Z,26.00
2024-04-14T07:44:01.702Z,26.40
2024-04-14T07:46:58.938Z,26.78
2024-04-14T07:49:56.409Z,27.10
2024-04-14T07:52:53.762Z,27.44
2024-04-14T07:55:55.817Z,27.70
2024-04-14T07:58:53.164Z,27.90
2024-04-14T08:01:50.526Z,28.10
2024-04-14T08:04:47.944Z,28.50
2024-04-14T08:07:45.461Z,28.88
2024-04-14T08:10:42.662Z,29.00
2024-04-14T08:13:40.374Z,29.30
2024-04-14T08:16:37.874Z,29.60
2024-04-14T08:19:35.072Z,29.90
2024-04-14T08:22:32.422Z,30.10
2024-04-14T08:25:29.708Z,30.20
2024-04-14T08:28:27.175Z,30.50
2024-04-14T08:31:24.334Z,30.88
2024-04-14T08:34:21.769Z,31.10
2024-04-14T08:37:21.074Z,31.28
2024-04-14T08:40:19.825Z,31.56
2024-04-14T08:43:17.000Z,31.70
2024-04-14T08:46:14.588Z,31.50
2024-04-14T08:49:12.204Z,31.46
2024-04-14T08:52:09.477Z,31.70
2024-04-14T08:55:08.541Z,31.90
2024-04-14T08:58:05.798Z,32.06
2024-04-14T09:01:04.009Z,32.00
2024-04-14T09:04:01.463Z,32.10
2024-04-14T09:06:58.863Z,32.04
2024-04-14T09:09:56.474Z,32.32
2024-04-14T09:12:53.705Z,32.70
2024-04-14T09:15:51.250Z,32.90
2024-04-14T09:18:48.600Z,33.10
2024-04-14T09:21:46.099Z,33.10
2024-04-14T09:24:43.508Z,33.20
2024-04-14T09:27:40.793Z,33.20
2024-04-14T09:30:38.242Z,33.30
2024-04-14T09:33:35.513Z,33.00
2024-04-14T09:36:33.301Z,33.00
2024-04-14T09:39:30.685Z,33.00
2024-04-14T09:42:28.023Z,33.00
2024-04-14T09:45:25.377Z,33.16
2024-04-14T09:48:22.702Z,33.10
2024-04-14T09:51:20.046Z,33.08
2024-04-14T09:54:17.319Z,33.34
2024-04-14T09:57:14.796Z,33.40
2024-04-14T10:00:11.995Z,33.60
2024-04-14T10:03:11.210Z,33.50
2024-04-14T10:06:08.807Z,33.60
2024-04-14T10:09:06.045Z,33.58
2024-04-14T10:12:03.601Z,33.40
2024-04-14T10:15:00.758Z,33.48
2024-04-14T10:17:58.503Z,33.60
2024-04-14T10:20:56.828Z,33.60
2024-04-14T10:23:56.100Z,33.70
2024-04-14T10:26:53.785Z,33.80
2024-04-14T10:29:51.219Z,33.70
2024-04-14T10:32:51.099Z,33.80
2024-04-14T10:35:49.860Z,33.70
2024-04-14T10:38:48.444Z,33.72
2024-04-14T10:41:45.733Z,33.90
2024-04-14T10:44:46.161Z,34.10
2024-04-14T10:47:44.744Z,34.02
2024-04-14T10:50:44.043Z,34.06
2024-04-14T10:53:42.880Z,34.20
2024-04-14T10:56:40.051Z,34.30
2024-04-14T10:59:37.498Z,34.60
2024-04-14T11:02:34.715Z,34.80
2024-04-14T11:05:32.897Z,34.70
2024-04-14T11:08:30.423Z,34.50
2024-04-14T11:11:27.963Z,34.30
2024-04-14T11:14:26.144Z,34.10
2024-04-14T11:17:23.785Z,34.10
2024-04-14T11:20:21.258Z,34.20
2024-04-14T11:23:18.429Z,34.48
2024-04-14T11:26:15.868Z,34.60
2024-04-14T11:29:13.652Z,34.70
2024-04-14T11:32:25.033Z,34.70
2024-04-14T11:35:22.346Z,34.70
2024-04-14T11:38:19.834Z,34.58
2024-04-14T11:41:17.289Z,34.40
2024-04-14T11:44:15.092Z,34.40
2024-04-14T11:47:12.426Z,34.20
2024-04-14T11:50:09.610Z,34.00
2024-04-14T11:53:07.100Z,34.00
2024-04-14T11:56:04.275Z,34.00
2024-04-14T11:59:01.748Z,34.02
2024-04-14T12:01:58.913Z,34.20
2024-04-14T12:04:56.409Z,34.10
2024-04-14T12:07:53.751Z,34.10
2024-04-14T12:10:51.251Z,33.90
2024-04-14T12:13:48.476Z,34.00
2024-04-14T12:16:46.057Z,33.78
2024-04-14T12:19:43.562Z,33.50
2024-04-14T12:22:40.727Z,33.26
2024-04-14T12:25:38.222Z,32.94
2024-04-14T12:28:35.451Z,32.90
2024-04-14T12:31:32.868Z,32.80
2024-04-14T12:34:30.137Z,32.80
2024-04-14T12:37:27.724Z,32.68
2024-04-14T12:40:25.270Z,32.60
2024-04-14T12:43:22.460Z,32.50
2024-04-14T12:46:20.137Z,32.40
2024-04-14T12:49:17.418Z,32.20
2024-04-14T12:52:14.906Z,32.00
2024-04-14T12:55:12.639Z,31.90
2024-04-14T12:58:10.144Z,31.90
2024-04-14T13:01:07.795Z,32.00
2024-04-14T13:04:05.156Z,32.10
2024-04-14T13:07:02.705Z,32.10
2024-04-14T13:09:59.932Z,32.00
2024-04-14T13:12:57.474Z,31.92
2024-04-14T13:15:54.723Z,31.80
2024-04-14T13:18:52.203Z,31.70
2024-04-14T13:21:50.037Z,31.80
2024-04-14T13:24:47.227Z,31.80
2024-04-14T13:27:44.732Z,31.70
2024-04-14T13:30:41.960Z,31.80
2024-04-14T13:33:39.677Z,31.60
2024-04-14T13:36:37.069Z,31.50
2024-04-14T13:39:34.492Z,31.42
2024-04-14T13:42:31.715Z,31.24
2024-04-14T13:45:29.194Z,31.20
2024-04-14T13:48:26.652Z,31.20
2024-04-14T13:51:23.843Z,31.26
2024-04-14T13:54:21.332Z,31.30
2024-04-14T13:57:18.555Z,31.10
2024-04-14T14:00:16.000Z,30.90
2024-04-14T14:03:13.176Z,30.80
2024-04-14T14:06:10.598Z,30.80
2024-04-14T14:09:07.764Z,30.88
2024-04-14T14:12:05.099Z,30.80
2024-04-14T14:15:02.371Z,30.90
2024-04-14T14:18:00.298Z,30.80
2024-04-14T14:20:57.789Z,30.70
2024-04-14T14:23:54.971Z,30.50
2024-04-14T14:26:52.772Z,30.40
2024-04-14T14:29:51.276Z,30.20
2024-04-14T14:32:48.890Z,30.10
2024-04-14T14:36:04.231Z,30.10
2024-04-14T14:39:01.401Z,30.00
2024-04-14T14:41:58.855Z,29.90
2024-04-14T14:44:56.026Z,29.80
2024-04-14T14:47:53.599Z,29.80
2024-04-14T14:50:50.883Z,29.70
2024-04-14T14:53:48.374Z,29.60
2024-04-14T14:56:45.922Z,29.60
2024-04-14T14:59:43.116Z,29.46
2024-04-14T15:02:40.476Z,29.26
2024-04-14T15:05:37.648Z,29.10
2024-04-14T15:08:35.165Z,29.00
2024-04-14T15:11:32.406Z,28.90
2024-04-14T15:14:29.785Z,28.90
2024-04-14T15:17:26.946Z,28.90
2024-04-14T15:20:24.322Z,28.70
2024-04-14T15:23:21.527Z,28.60
2024-04-14T15:26:19.002Z,28.44
2024-04-14T15:29:16.501Z,28.26
2024-04-14T15:32:13.761Z,28.16
2024-04-14T15:35:11.107Z,28.10
2024-04-14T15:38:08.685Z,28.00
2024-04-14T15:41:06.206Z,27.90
2024-04-14T15:44:10.715Z,27.90
2024-04-14T15:47:12.410Z,27.70
2024-04-14T15:50:09.793Z,27.60
2024-04-14T15:53:07.411Z,27.50
2024-04-14T15:56:04.894Z,27.34
2024-04-14T15:59:02.346Z,27.22
2024-04-14T16:01:59.560Z,27.10
2024-04-14T16:04:57.263Z,27.00
2024-04-14T16:07:55.884Z,26.88
2024-04-14T16:10:53.432Z,26.80
2024-04-14T16:13:50.977Z,26.62
2024-04-14T16:16:48.186Z,26.54
2024-04-14T16:19:47.252Z,26.50
2024-04-14T16:22:44.482Z,26.40
2024-04-14T16:25:42.026Z,26.30
2024-04-14T16:28:39.429Z,26.20
2024-04-14T16:31:36.854Z,26.10
2024-04-14T16:34:34.082Z,26.00
2024-04-14T16:37:31.551Z,25.90
2024-04-14T16:40:29.165Z,25.70
2024-04-14T16:43:26.382Z,25.60
2024-04-14T16:46:23.974Z,25.60
2024-04-14T16:49:21.495Z,25.50
2024-04-14T16:52:18.903Z,25.40
2024-04-14T16:55:19.331Z,25.30
2024-04-14T16:58:16.918Z,25.20
2024-04-14T17:01:14.501Z,25.10
2024-04-14T17:04:11.837Z,25.00
2024-04-14T17:07:09.498Z,24.88
2024-04-14T17:10:06.821Z,24.72
2024-04-14T17:13:04.642Z,24.60
2024-04-14T17:16:01.904Z,24.50
2024-04-14T17:18:59.346Z,24.30
2024-04-14T17:21:56.772Z,24.20
2024-04-14T17:24:54.510Z,24.00
2024-04-14T17:27:52.202Z,23.90
2024-04-14T17:30:49.369Z,23.80
2024-04-14T17:33:46.789Z,23.70
2024-04-14T17:36:43.994Z,23.50
2024-04-14T17:39:41.531Z,23.38
2024-04-14T17:42:38.705Z,23.20
2024-04-14T17:45:36.348Z,23.08
2024-04-14T17:48:33.627Z,22.90
2024-04-14T17:51:31.161Z,22.78
2024-04-14T17:54:29.078Z,22.60
2024-04-14T17:57:26.583Z,22.50
2024-04-14T18:00:23.941Z,22.40
2024-04-14T18:03:21.183Z,22.30
2024-04-14T18:06:18.668Z,22.20
2024-04-14T18:09:15.948Z,22.10
2024-04-14T18:12:13.444Z,22.00
2024-04-14T18:15:10.637Z,21.90
2024-04-14T18:18:08.462Z,21.80
2024-04-14T18:21:05.664Z,21.70
2024-04-14T18:24:03.066Z,21.60
2024-04-14T18:27:00.307Z,21.50
2024-04-14T18:29:57.841Z,21.40
2024-04-14T18:32:55.369Z,21.30
2024-04-14T18:35:52.609Z,21.20
2024-04-14T18:38:49.946Z,21.10
2024-04-14T18:41:47.161Z,21.00
2024-04-14T18:44:44.710Z,20.90
2024-04-14T18:47:41.990Z,20.80
2024-04-14T18:50:39.640Z,20.70
2024-04-14T18:53:36.792Z,20.70
2024-04-14T18:56:34.243Z,20.60
2024-04-14T18:59:31.418Z,20.50
2024-04-14T19:02:28.836Z,20.50
2024-04-14T19:05:26.042Z,20.40
2024-04-14T19:08:23.406Z,20.32
2024-04-14T19:11:20.874Z,20.30
2024-04-14T19:14:18.077Z,20.20
2024-04-14T19:17:17.447Z,20.20
2024-04-14T19:20:14.817Z,20.10
2024-04-14T19:23:12.558Z,20.10
2024-04-14T19:26:11.170Z,20.00
2024-04-14T19:29:09.274Z,20.00
2024-04-14T19:32:07.407Z,19.94
2024-04-14T19:35:04.655Z,19.90
2024-04-14T19:38:02.082Z,19.90
2024-04-14T19:41:00.377Z,19.80
2024-04-14T19:43:57.789Z,19.80
2024-04-14T19:46:55.090Z,19.74
2024-04-14T19:49:52.770Z,19.70
2024-04-14T19:52:50.016Z,19.70
2024-04-14T19:55:47.387Z,19.70
2024-04-14T19:58:44.642Z,19.70
2024-04-14T20:01:42.176Z,19.70
2024-04-14T20:04:39.712Z,19.60
2024-04-14T20:07:37.042Z,19.60
2024-04-14T20:10:34.659Z,19.60
2024-04-14T20:13:31.860Z,19.60
2024-04-14T20:16:34.485Z,19.60
2024-04-14T20:19:33.303Z,19.50
2024-04-14T20:22:30.663Z,19.50
2024-04-14T20:25:28.128Z,19.50
2024-04-14T20:28:25.289Z,19.40
2024-04-14T20:31:22.617Z,19.40
2024-04-14T20:34:19.848Z,19.40
2024-04-14T20:37:17.402Z,19.32
2024-04-14T20:40:14.985Z,19.30
2024-04-14T20:43:12.382Z,19.30
2024-04-14T20:46:09.901Z,19.20
2024-04-14T20:49:07.317Z,19.20
2024-04-14T20:52:04.965Z,19.10
2024-04-14T20:55:02.293Z,19.10
2024-04-14T20:57:59.783Z,19.00
2024-04-14T21:00:57.292Z,19.00
2024-04-14T21:03:54.831Z,18.96
2024-04-14T21:06:52.388Z,18.90
2024-04-14T21:09:49.706Z,18.90
2024-04-14T21:12:47.095Z,18.80
2024-04-14T21:15:44.606Z,18.80
2024-04-14T21:18:41.985Z,18.70
2024-04-14T21:21:39.714Z,18.70
2024-04-14T21:24:37.034Z,18.60
2024-04-14T21:27:34.588Z,18.60
2024-04-14T21:30:31.763Z,18.50
2024-04-14T21:33:29.409Z,18.50
2024-04-14T21:36:27.122Z,18.50
2024-04-14T21:39:24.367Z,18.40
2024-04-14T21:42:22.024Z,18.40
2024-04-14T21:45:19.222Z,18.40
2024-04-14T21:48:16.775Z,18.30
2024-04-14T21:51:14.941Z,18.30
2024-04-14T21:54:12.140Z,18.30
2024-04-14T21:57:09.537Z,18.22
2024-04-14T22:00:07.552Z,18.20
2024-04-14T22:03:05.000Z,18.20
2024-04-14T22:06:02.260Z,18.10
2024-04-14T22:09:00.010Z,18.10
2024-04-14T22:11:57.505Z,18.00
2024-04-14T22:14:54.697Z,18.00
2024-04-14T22:17:52.569Z,17.98
2024-04-14T22:20:49.770Z,17.90
2024-04-14T22:23:47.215Z,17.90
2024-04-14T22:26:44.626Z,17.90
2024-04-14T22:29:41.788Z,17.84
2024-04-14T22:32:39.141Z,17.80
2024-04-14T22:35:36.298Z,17.80
2024-04-14T22:38:33.839Z,17.72
2024-04-14T22:41:30.990Z,17.70
2024-04-14T22:44:28.424Z,17.70
2024-04-14T22:47:26.763Z,17.60
2024-04-14T22:50:24.006Z,17.60
2024-04-14T22:53:21.487Z,17.50
2024-04-14T22:56:18.700Z,17.50
2024-04-14T22:59:16.220Z,17.40
2024-04-14T23:02:13.672Z,17.30
2024-04-14T23:05:10.822Z,17.30
2024-04-14T23:08:08.367Z,17.20
2024-04-14T23:11:05.598Z,17.10
2024-04-14T23:14:02.994Z,17.10
2024-04-14T23:17:00.188Z,17.00
2024-04-14T23:19:57.623Z,16.90
2024-04-14T23:22:54.977Z,16.80
2024-04-14T23:25:52.184Z,16.78
2024-04-14T23:28:49.558Z,16.70
2024-04-14T23:31:46.717Z,16.60
2024-04-14T23:34:44.107Z,16.56
2024-04-14T23:37:41.256Z,16.50
2024-04-14T23:40:39.495Z,16.40
2024-04-14T23:43:36.877Z,16.40
2024-04-14T23:46:34.051Z,16.30
2024-04-14T23:49:31.468Z,16.20
2024-04-14T23:52:28.666Z,16.20
2024-04-14T23:55:26.103Z,16.10
2024-04-14T23:58:23.509Z,16.10
